DLH787 EDDS-EDDH
Flight info
| Callsign | DLH787 |
|---|---|
| Flight time | 0h 56m |
| Altitude | 35000 |
| Route | OKIBA4B/25 OKIBA N851 RIMKI Z99 LOHRE DCT MASEK DCT ELNAT/N0448F340 P605 NOLGO NOLGO3S |
| Aircraft | A320/M-SDE3FGHIRWY/LB1 |
Departure
| Time | 2026-04-25 18:26 |
|---|---|
| Airport | Stuttgart Airport (EDDS) |
Arrival
| Time | 2026-04-25 19:22 |
|---|---|
| Airport | Hamburg Helmut Schmidt Airport (EDDH) |
| Time | Latitude | Longitude | Altitude | Speed | Heading |
|---|---|---|---|---|---|
| 2026-04-25 18:03 | 48.68943 | 9.19719 | 1286 ft | 0 kts | 343° |
| 2026-04-25 18:16 | 48.68931 | 9.19725 | 1290 ft | 2 kts | 345° |
| 2026-04-25 18:16 | 48.68899 | 9.19736 | 1290 ft | 2 kts | 353° |
| 2026-04-25 18:17 | 48.68882 | 9.19737 | 1290 ft | 2 kts | 16° |
| 2026-04-25 18:17 | 48.68869 | 9.19724 | 1286 ft | 2 kts | 73° |
| 2026-04-25 18:17 | 48.68868 | 9.19716 | 1289 ft | 0 kts | 78° |
| 2026-04-25 18:19 | 48.68871 | 9.19734 | 1287 ft | 6 kts | 75° |
| 2026-04-25 18:19 | 48.68886 | 9.19811 | 1285 ft | 8 kts | 77° |
| 2026-04-25 18:19 | 48.68874 | 9.19869 | 1289 ft | 5 kts | 150° |
| 2026-04-25 18:20 | 48.68832 | 9.19897 | 1288 ft | 8 kts | 141° |
| 2026-04-25 18:20 | 48.68832 | 9.20002 | 1290 ft | 13 kts | 73° |
| 2026-04-25 18:20 | 48.68858 | 9.20155 | 1285 ft | 17 kts | 75° |
| 2026-04-25 18:20 | 48.68891 | 9.20340 | 1288 ft | 19 kts | 75° |
| 2026-04-25 18:21 | 48.68931 | 9.20542 | 1286 ft | 21 kts | 72° |
| 2026-04-25 18:21 | 48.68977 | 9.20760 | 1290 ft | 22 kts | 72° |
| 2026-04-25 18:21 | 48.69023 | 9.20989 | 1287 ft | 23 kts | 75° |
| 2026-04-25 18:21 | 48.69067 | 9.21233 | 1287 ft | 24 kts | 74° |
| 2026-04-25 18:22 | 48.69113 | 9.21481 | 1286 ft | 25 kts | 74° |
| 2026-04-25 18:22 | 48.69130 | 9.21568 | 1286 ft | 26 kts | 74° |
| 2026-04-25 18:22 | 48.69206 | 9.21980 | 1285 ft | 23 kts | 74° |
| 2026-04-25 18:22 | 48.69252 | 9.22220 | 1288 ft | 24 kts | 74° |
| 2026-04-25 18:23 | 48.69301 | 9.22468 | 1285 ft | 25 kts | 73° |
| 2026-04-25 18:23 | 48.69350 | 9.22726 | 1285 ft | 26 kts | 74° |
| 2026-04-25 18:23 | 48.69400 | 9.22993 | 1287 ft | 27 kts | 74° |
| 2026-04-25 18:23 | 48.69453 | 9.23268 | 1289 ft | 28 kts | 73° |
| 2026-04-25 18:24 | 48.69506 | 9.23551 | 1285 ft | 28 kts | 74° |
| 2026-04-25 18:24 | 48.69502 | 9.23713 | 1289 ft | 14 kts | 126° |
| 2026-04-25 18:24 | 48.69420 | 9.23735 | 1285 ft | 12 kts | 203° |
| 2026-04-25 18:24 | 48.69363 | 9.23659 | 1287 ft | 12 kts | 224° |
| 2026-04-25 18:25 | 48.69290 | 9.23553 | 1288 ft | 18 kts | 222° |
| 2026-04-25 18:25 | 48.69213 | 9.23386 | 1288 ft | 20 kts | 252° |
| 2026-04-25 18:25 | 48.69147 | 9.23042 | 1290 ft | 65 kts | 254° |
| 2026-04-25 18:25 | 48.68963 | 9.22066 | 1287 ft | 128 kts | 254° |
| 2026-04-25 18:26 | 48.68682 | 9.20550 | 1485 ft | 159 kts | 256° |
| 2026-04-25 18:26 | 48.68378 | 9.18893 | 2165 ft | 164 kts | 258° |
| 2026-04-25 18:26 | 48.68093 | 9.17198 | 2820 ft | 171 kts | 258° |
| 2026-04-25 18:26 | 48.67740 | 9.15368 | 3135 ft | 192 kts | 256° |
| 2026-04-25 18:27 | 48.67329 | 9.13327 | 3396 ft | 216 kts | 256° |
| 2026-04-25 18:27 | 48.67012 | 9.11002 | 3761 ft | 235 kts | 277° |
| 2026-04-25 18:27 | 48.67581 | 9.08696 | 4454 ft | 238 kts | 304° |
| 2026-04-25 18:27 | 48.68667 | 9.06772 | 4885 ft | 242 kts | 327° |
| 2026-04-25 18:28 | 48.70230 | 9.05841 | 5019 ft | 255 kts | 348° |
| 2026-04-25 18:28 | 48.71990 | 9.05159 | 5714 ft | 264 kts | 344° |
| 2026-04-25 18:28 | 48.73762 | 9.04366 | 6605 ft | 267 kts | 346° |
| 2026-04-25 18:29 | 48.77422 | 9.05126 | 8285 ft | 279 kts | 30° |
| 2026-04-25 18:29 | 48.78860 | 9.07130 | 9112 ft | 287 kts | 51° |
| 2026-04-25 18:30 | 48.82467 | 9.14914 | 10719 ft | 328 kts | 52° |
| 2026-04-25 18:30 | 48.83807 | 9.17810 | 11195 ft | 340 kts | 52° |
| 2026-04-25 18:30 | 48.85176 | 9.20773 | 11874 ft | 345 kts | 52° |
| 2026-04-25 18:30 | 48.86561 | 9.23771 | 12589 ft | 349 kts | 52° |
| 2026-04-25 18:31 | 48.88093 | 9.26641 | 13274 ft | 350 kts | 40° |
| 2026-04-25 18:31 | 48.89411 | 9.28131 | 13711 ft | 349 kts | 27° |
| 2026-04-25 18:31 | 48.91677 | 9.29401 | 14332 ft | 348 kts | 7° |
| 2026-04-25 18:31 | 48.94089 | 9.29694 | 14963 ft | 349 kts | 1° |
| 2026-04-25 18:32 | 48.96525 | 9.29883 | 15620 ft | 351 kts | 1° |
| 2026-04-25 18:32 | 48.98972 | 9.30068 | 16260 ft | 354 kts | 1° |
| 2026-04-25 18:32 | 49.01434 | 9.30259 | 16888 ft | 357 kts | 1° |
| 2026-04-25 18:32 | 49.03926 | 9.30458 | 17508 ft | 359 kts | 1° |
| 2026-04-25 18:33 | 49.06434 | 9.30663 | 18110 ft | 362 kts | 1° |
| 2026-04-25 18:33 | 49.08962 | 9.30872 | 18674 ft | 365 kts | 1° |
| 2026-04-25 18:33 | 49.11471 | 9.31078 | 19187 ft | 367 kts | 1° |
| 2026-04-25 18:33 | 49.14068 | 9.31288 | 19716 ft | 370 kts | 1° |
| 2026-04-25 18:34 | 49.16644 | 9.31499 | 20254 ft | 372 kts | 1° |
| 2026-04-25 18:34 | 49.19236 | 9.31715 | 20780 ft | 374 kts | 1° |
| 2026-04-25 18:34 | 49.21841 | 9.31935 | 21294 ft | 376 kts | 1° |
| 2026-04-25 18:34 | 49.24426 | 9.32151 | 21798 ft | 378 kts | 1° |
| 2026-04-25 18:35 | 49.27061 | 9.32369 | 22291 ft | 380 kts | 1° |
| 2026-04-25 18:35 | 49.29713 | 9.32591 | 22792 ft | 383 kts | 1° |
| 2026-04-25 18:35 | 49.32381 | 9.32815 | 23267 ft | 385 kts | 0° |
| 2026-04-25 18:35 | 49.35063 | 9.33044 | 23729 ft | 387 kts | 1° |
| 2026-04-25 18:36 | 49.37757 | 9.33404 | 24127 ft | 390 kts | 3° |
| 2026-04-25 18:36 | 49.40455 | 9.33909 | 24494 ft | 393 kts | 5° |
| 2026-04-25 18:36 | 49.43182 | 9.34500 | 24874 ft | 396 kts | 5° |
| 2026-04-25 18:36 | 49.45912 | 9.35115 | 25249 ft | 398 kts | 5° |
| 2026-04-25 18:37 | 49.48657 | 9.35725 | 25625 ft | 399 kts | 5° |
| 2026-04-25 18:37 | 49.51414 | 9.36316 | 25998 ft | 401 kts | 5° |
| 2026-04-25 18:37 | 49.54187 | 9.36890 | 26368 ft | 403 kts | 4° |
| 2026-04-25 18:37 | 49.56970 | 9.37450 | 26734 ft | 404 kts | 4° |
| 2026-04-25 18:38 | 49.59766 | 9.38009 | 27102 ft | 406 kts | 4° |
| 2026-04-25 18:38 | 49.62575 | 9.38571 | 27458 ft | 408 kts | 4° |
| 2026-04-25 18:38 | 49.65403 | 9.39137 | 27814 ft | 410 kts | 4° |
| 2026-04-25 18:38 | 49.68237 | 9.39711 | 28169 ft | 412 kts | 4° |
| 2026-04-25 18:39 | 49.71087 | 9.40293 | 28513 ft | 414 kts | 4° |
| 2026-04-25 18:39 | 49.73946 | 9.40876 | 28854 ft | 416 kts | 4° |
| 2026-04-25 18:39 | 49.76822 | 9.41462 | 29199 ft | 418 kts | 4° |
| 2026-04-25 18:39 | 49.79710 | 9.42051 | 29522 ft | 420 kts | 4° |
| 2026-04-25 18:40 | 49.82612 | 9.42647 | 29849 ft | 421 kts | 4° |
| 2026-04-25 18:40 | 49.85521 | 9.43246 | 30167 ft | 423 kts | 4° |
| 2026-04-25 18:40 | 49.88440 | 9.43842 | 30417 ft | 424 kts | 4° |
| 2026-04-25 18:40 | 49.91371 | 9.44440 | 30671 ft | 426 kts | 4° |
| 2026-04-25 18:41 | 49.94315 | 9.45044 | 30906 ft | 428 kts | 4° |
| 2026-04-25 18:41 | 49.97252 | 9.45648 | 31138 ft | 429 kts | 4° |
| 2026-04-25 18:41 | 50.00233 | 9.46253 | 31420 ft | 430 kts | 4° |
| 2026-04-25 18:41 | 50.03196 | 9.46857 | 31771 ft | 429 kts | 4° |
| 2026-04-25 18:42 | 50.06148 | 9.47466 | 32054 ft | 429 kts | 4° |
| 2026-04-25 18:42 | 50.08108 | 9.47870 | 32101 ft | 428 kts | 4° |
| 2026-04-25 18:42 | 50.15019 | 9.49301 | 32410 ft | 429 kts | 4° |
| 2026-04-25 18:43 | 50.17967 | 9.49911 | 32775 ft | 427 kts | 4° |
| 2026-04-25 18:43 | 50.20913 | 9.50522 | 33111 ft | 427 kts | 4° |
| 2026-04-25 18:43 | 50.23856 | 9.51133 | 33445 ft | 426 kts | 4° |
| 2026-04-25 18:43 | 50.26791 | 9.51745 | 33789 ft | 426 kts | 4° |
| 2026-04-25 18:44 | 50.29725 | 9.52359 | 34060 ft | 425 kts | 4° |
| 2026-04-25 18:44 | 50.32655 | 9.52971 | 34121 ft | 424 kts | 4° |
| 2026-04-25 18:44 | 50.38504 | 9.54193 | 34118 ft | 424 kts | 4° |
| 2026-04-25 18:45 | 50.44352 | 9.55411 | 34119 ft | 423 kts | 4° |
| 2026-04-25 18:45 | 50.50155 | 9.56633 | 34128 ft | 423 kts | 3° |
| 2026-04-25 18:46 | 50.55968 | 9.57862 | 34122 ft | 421 kts | 4° |
| 2026-04-25 18:46 | 50.61763 | 9.59087 | 34128 ft | 421 kts | 3° |
| 2026-04-25 18:47 | 50.67569 | 9.60304 | 34130 ft | 421 kts | 3° |
| 2026-04-25 18:47 | 50.73350 | 9.61530 | 34130 ft | 421 kts | 3° |
| 2026-04-25 18:48 | 50.79178 | 9.62772 | 34133 ft | 421 kts | 4° |
| 2026-04-25 18:48 | 50.84975 | 9.64012 | 34134 ft | 421 kts | 4° |
| 2026-04-25 18:49 | 50.90776 | 9.65258 | 34130 ft | 420 kts | 4° |
| 2026-04-25 18:49 | 50.96575 | 9.66498 | 34132 ft | 420 kts | 3° |
| 2026-04-25 18:50 | 51.02375 | 9.67744 | 34133 ft | 421 kts | 3° |
| 2026-04-25 18:50 | 51.08175 | 9.69000 | 34133 ft | 421 kts | 4° |
| 2026-04-25 18:51 | 51.12992 | 9.70045 | 34130 ft | 420 kts | 3° |
| 2026-04-25 18:51 | 51.19771 | 9.71518 | 34131 ft | 420 kts | 3° |
| 2026-04-25 18:52 | 51.25557 | 9.72761 | 34128 ft | 419 kts | 3° |
| 2026-04-25 18:52 | 51.31339 | 9.74000 | 34122 ft | 419 kts | 3° |
| 2026-04-25 18:53 | 51.37129 | 9.75264 | 34116 ft | 419 kts | 3° |
| 2026-04-25 18:53 | 51.42910 | 9.76527 | 34115 ft | 418 kts | 3° |
| 2026-04-25 18:54 | 51.51534 | 9.78419 | 34111 ft | 417 kts | 3° |
| 2026-04-25 18:55 | 51.57282 | 9.79686 | 34111 ft | 417 kts | 3° |
| 2026-04-25 18:55 | 51.63022 | 9.80949 | 34112 ft | 417 kts | 3° |
| 2026-04-25 18:56 | 51.68769 | 9.82224 | 34107 ft | 416 kts | 3° |
| 2026-04-25 18:56 | 51.74511 | 9.83500 | 34107 ft | 417 kts | 3° |
| 2026-04-25 18:57 | 51.80212 | 9.84772 | 34107 ft | 417 kts | 3° |
| 2026-04-25 18:57 | 51.85956 | 9.86053 | 34106 ft | 417 kts | 3° |
| 2026-04-25 18:58 | 51.91699 | 9.87331 | 34105 ft | 416 kts | 3° |
| 2026-04-25 18:58 | 51.97378 | 9.88604 | 33321 ft | 406 kts | 3° |
| 2026-04-25 18:58 | 52.00154 | 9.89233 | 32893 ft | 401 kts | 3° |
| 2026-04-25 18:59 | 52.05679 | 9.90476 | 32051 ft | 396 kts | 3° |
| 2026-04-25 18:59 | 52.11074 | 9.91684 | 31262 ft | 391 kts | 2° |
| 2026-04-25 19:00 | 52.16405 | 9.92892 | 30474 ft | 383 kts | 2° |
| 2026-04-25 19:00 | 52.19036 | 9.93493 | 30075 ft | 381 kts | 2° |
| 2026-04-25 19:01 | 52.24250 | 9.94680 | 29169 ft | 375 kts | 2° |
| 2026-04-25 19:01 | 52.26826 | 9.95259 | 28738 ft | 372 kts | 2° |
| 2026-04-25 19:01 | 52.29381 | 9.95835 | 28306 ft | 369 kts | 2° |
| 2026-04-25 19:01 | 52.31914 | 9.96411 | 27848 ft | 366 kts | 2° |
| 2026-04-25 19:02 | 52.36900 | 9.97559 | 26930 ft | 357 kts | 2° |
| 2026-04-25 19:02 | 52.39349 | 9.98120 | 26481 ft | 353 kts | 2° |
| 2026-04-25 19:02 | 52.41772 | 9.98674 | 25998 ft | 350 kts | 1° |
| 2026-04-25 19:03 | 52.44965 | 9.99703 | 25368 ft | 353 kts | 12° |
| 2026-04-25 19:03 | 52.48775 | 10.02090 | 24590 ft | 351 kts | 14° |
| 2026-04-25 19:03 | 52.51046 | 10.03555 | 24141 ft | 349 kts | 14° |
| 2026-04-25 19:04 | 52.55563 | 10.05890 | 23207 ft | 336 kts | 5° |
| 2026-04-25 19:04 | 52.57843 | 10.06620 | 22719 ft | 334 kts | 4° |
| 2026-04-25 19:05 | 52.62361 | 10.08127 | 21890 ft | 327 kts | 4° |
| 2026-04-25 19:05 | 52.66786 | 10.09009 | 21016 ft | 316 kts | 356° |
| 2026-04-25 19:05 | 52.68971 | 10.09227 | 20524 ft | 312 kts | 356° |
| 2026-04-25 19:06 | 52.71135 | 10.09437 | 19997 ft | 311 kts | 356° |
| 2026-04-25 19:06 | 52.75423 | 10.09847 | 19192 ft | 307 kts | 356° |
| 2026-04-25 19:06 | 52.77549 | 10.10047 | 18786 ft | 305 kts | 356° |
| 2026-04-25 19:07 | 52.81770 | 10.10450 | 17910 ft | 302 kts | 357° |
| 2026-04-25 19:07 | 52.83863 | 10.10652 | 17534 ft | 299 kts | 356° |
| 2026-04-25 19:08 | 52.87981 | 10.11058 | 16770 ft | 294 kts | 356° |
| 2026-04-25 19:08 | 52.90018 | 10.11255 | 16378 ft | 292 kts | 356° |
| 2026-04-25 19:09 | 52.96030 | 10.11844 | 14891 ft | 286 kts | 356° |
| 2026-04-25 19:09 | 52.96674 | 10.11906 | 14736 ft | 285 kts | 356° |
| 2026-04-25 19:09 | 53.01893 | 10.12403 | 13456 ft | 279 kts | 356° |
| 2026-04-25 19:10 | 53.03821 | 10.12725 | 12993 ft | 283 kts | 7° |
| 2026-04-25 19:10 | 53.05690 | 10.13877 | 12631 ft | 288 kts | 14° |
| 2026-04-25 19:10 | 53.07522 | 10.15190 | 12190 ft | 286 kts | 14° |
| 2026-04-25 19:10 | 53.09343 | 10.16511 | 11729 ft | 284 kts | 14° |
| 2026-04-25 19:11 | 53.11149 | 10.17829 | 11273 ft | 283 kts | 14° |
| 2026-04-25 19:11 | 53.12945 | 10.19145 | 10813 ft | 281 kts | 14° |
| 2026-04-25 19:11 | 53.14724 | 10.20452 | 10293 ft | 279 kts | 14° |
| 2026-04-25 19:11 | 53.16484 | 10.21746 | 9719 ft | 277 kts | 14° |
| 2026-04-25 19:12 | 53.18242 | 10.23037 | 9113 ft | 275 kts | 14° |
| 2026-04-25 19:12 | 53.20020 | 10.23933 | 8532 ft | 259 kts | 358° |
| 2026-04-25 19:12 | 53.21805 | 10.24091 | 7917 ft | 255 kts | 354° |
| 2026-04-25 19:12 | 53.23578 | 10.24189 | 7322 ft | 254 kts | 355° |
| 2026-04-25 19:13 | 53.25340 | 10.24297 | 6745 ft | 253 kts | 355° |
| 2026-04-25 19:13 | 53.27084 | 10.24334 | 6259 ft | 244 kts | 348° |
| 2026-04-25 19:13 | 53.28621 | 10.23651 | 6121 ft | 217 kts | 338° |
| 2026-04-25 19:13 | 53.30009 | 10.22934 | 5857 ft | 203 kts | 339° |
| 2026-04-25 19:14 | 53.31342 | 10.22242 | 5400 ft | 199 kts | 339° |
| 2026-04-25 19:14 | 53.31787 | 10.22005 | 5223 ft | 198 kts | 339° |
| 2026-04-25 19:14 | 53.33947 | 10.20809 | 4369 ft | 196 kts | 338° |
| 2026-04-25 19:14 | 53.35241 | 10.20077 | 3944 ft | 196 kts | 338° |
| 2026-04-25 19:15 | 53.36532 | 10.19353 | 3627 ft | 195 kts | 338° |
| 2026-04-25 19:15 | 53.37400 | 10.18866 | 3405 ft | 194 kts | 338° |
| 2026-04-25 19:15 | 53.38681 | 10.18149 | 3079 ft | 194 kts | 338° |
| 2026-04-25 19:15 | 53.40369 | 10.17206 | 2997 ft | 195 kts | 338° |
| 2026-04-25 19:16 | 53.41242 | 10.16718 | 2999 ft | 196 kts | 339° |
| 2026-04-25 19:16 | 53.42583 | 10.16398 | 2995 ft | 201 kts | 356° |
| 2026-04-25 19:16 | 53.43947 | 10.16164 | 3005 ft | 195 kts | 337° |
| 2026-04-25 19:16 | 53.45146 | 10.15119 | 3006 ft | 194 kts | 330° |
| 2026-04-25 19:17 | 53.46309 | 10.14072 | 2996 ft | 183 kts | 330° |
| 2026-04-25 19:17 | 53.47399 | 10.13117 | 2997 ft | 170 kts | 330° |
| 2026-04-25 19:17 | 53.48408 | 10.12242 | 2994 ft | 155 kts | 331° |
| 2026-04-25 19:17 | 53.49341 | 10.11434 | 2998 ft | 148 kts | 331° |
| 2026-04-25 19:18 | 53.50248 | 10.10651 | 2993 ft | 146 kts | 331° |
| 2026-04-25 19:18 | 53.51163 | 10.09864 | 2800 ft | 144 kts | 331° |
| 2026-04-25 19:18 | 53.52042 | 10.09106 | 2591 ft | 143 kts | 331° |
| 2026-04-25 19:18 | 53.52940 | 10.08330 | 2377 ft | 143 kts | 331° |
| 2026-04-25 19:19 | 53.53827 | 10.07565 | 2157 ft | 144 kts | 330° |
| 2026-04-25 19:19 | 53.54718 | 10.06794 | 1942 ft | 144 kts | 330° |
| 2026-04-25 19:19 | 53.55585 | 10.06044 | 1759 ft | 135 kts | 330° |
| 2026-04-25 19:19 | 53.56134 | 10.05570 | 1622 ft | 129 kts | 330° |
| 2026-04-25 19:20 | 53.57172 | 10.04672 | 1378 ft | 125 kts | 330° |
| 2026-04-25 19:20 | 53.57935 | 10.04014 | 1222 ft | 122 kts | 330° |
| 2026-04-25 19:20 | 53.58690 | 10.03366 | 1038 ft | 121 kts | 329° |
| 2026-04-25 19:20 | 53.59447 | 10.02719 | 859 ft | 122 kts | 329° |
| 2026-04-25 19:21 | 53.60211 | 10.02063 | 659 ft | 124 kts | 329° |
| 2026-04-25 19:21 | 53.61750 | 10.00722 | 317 ft | 125 kts | 329° |
| 2026-04-25 19:21 | 53.62515 | 10.00063 | 160 ft | 123 kts | 328° |
| 2026-04-25 19:22 | 53.63254 | 9.99410 | 50 ft | 110 kts | 331° |
| 2026-04-25 19:22 | 53.63774 | 9.98946 | 48 ft | 60 kts | 332° |
| 2026-04-25 19:22 | 53.64322 | 9.98478 | 49 ft | 36 kts | 334° |
| 2026-04-25 19:23 | 53.64548 | 9.98372 | 52 ft | 32 kts | 6° |
| 2026-04-25 19:23 | 53.64639 | 9.98552 | 50 ft | 15 kts | 154° |
| 2026-04-25 19:23 | 53.64552 | 9.98633 | 51 ft | 13 kts | 152° |
| 2026-04-25 19:24 | 53.64473 | 9.98702 | 51 ft | 12 kts | 153° |
| 2026-04-25 19:24 | 53.64401 | 9.98764 | 51 ft | 11 kts | 153° |
| 2026-04-25 19:24 | 53.64218 | 9.98918 | 49 ft | 20 kts | 154° |
| 2026-04-25 19:25 | 53.63925 | 9.99172 | 49 ft | 24 kts | 153° |
| 2026-04-25 19:25 | 53.63789 | 9.99310 | 51 ft | 22 kts | 137° |
| 2026-04-25 19:25 | 53.63697 | 9.99502 | 51 ft | 20 kts | 126° |
| 2026-04-25 19:26 | 53.63628 | 9.99664 | 51 ft | 6 kts | 126° |
| 2026-04-25 19:26 | 53.63623 | 9.99676 | 51 ft | 0 kts | 126° |
| 2026-04-25 19:28 | 53.63622 | 9.99680 | 51 ft | 2 kts | 126° |
| 2026-04-25 19:28 | 53.63609 | 9.99710 | 48 ft | 5 kts | 125° |
| 2026-04-25 19:28 | 53.63584 | 9.99770 | 51 ft | 8 kts | 124° |
| 2026-04-25 19:28 | 53.63546 | 9.99856 | 51 ft | 12 kts | 128° |
| 2026-04-25 19:29 | 53.63485 | 9.99995 | 50 ft | 17 kts | 125° |
| 2026-04-25 19:29 | 53.63446 | 10.00165 | 51 ft | 15 kts | 88° |
| 2026-04-25 19:29 | 53.63449 | 10.00307 | 51 ft | 0 kts | 88° |